sensor_id;sensor_type;location;lat;lon;timestamp;P1;durP1;ratioP1;P2;durP2;ratioP2
63444;SDS011;49573;47.682;9.170;2023-04-30T00:01:46;6.35;;;4.50;;
63444;SDS011;49573;47.682;9.170;2023-04-30T00:04:32;6.00;;;4.50;;
63444;SDS011;49573;47.682;9.170;2023-04-30T00:07:18;8.73;;;3.78;;
63444;SDS011;49573;47.682;9.170;2023-04-30T00:10:04;5.65;;;3.75;;
63444;SDS011;49573;47.682;9.170;2023-04-30T00:15:38;7.57;;;4.13;;
63444;SDS011;49573;47.682;9.170;2023-04-30T00:18:25;7.80;;;3.83;;
63444;SDS011;49573;47.682;9.170;2023-04-30T00:21:11;8.57;;;4.28;;
63444;SDS011;49573;47.682;9.170;2023-04-30T00:23:57;8.93;;;4.50;;
63444;SDS011;49573;47.682;9.170;2023-04-30T00:26:45;7.97;;;4.30;;
63444;SDS011;49573;47.682;9.170;2023-04-30T00:29:31;5.35;;;3.63;;
63444;SDS011;49573;47.682;9.170;2023-04-30T00:32:18;6.93;;;4.32;;
63444;SDS011;49573;47.682;9.170;2023-04-30T00:35:05;6.72;;;3.92;;
63444;SDS011;49573;47.682;9.170;2023-04-30T00:37:51;8.15;;;3.85;;
63444;SDS011;49573;47.682;9.170;2023-04-30T00:40:37;5.70;;;3.90;;
63444;SDS011;49573;47.682;9.170;2023-04-30T00:43:25;6.85;;;4.20;;
63444;SDS011;49573;47.682;9.170;2023-04-30T00:46:12;6.53;;;3.93;;
63444;SDS011;49573;47.682;9.170;2023-04-30T00:48:59;5.78;;;4.00;;
63444;SDS011;49573;47.682;9.170;2023-04-30T00:51:49;7.28;;;3.92;;
63444;SDS011;49573;47.682;9.170;2023-04-30T00:54:36;5.20;;;3.58;;
63444;SDS011;49573;47.682;9.170;2023-04-30T00:57:22;5.43;;;3.90;;
63444;SDS011;49573;47.682;9.170;2023-04-30T01:00:11;9.57;;;4.03;;
63444;SDS011;49573;47.682;9.170;2023-04-30T01:02:58;6.88;;;4.47;;
63444;SDS011;49573;47.682;9.170;2023-04-30T01:05:46;5.82;;;3.72;;
63444;SDS011;49573;47.682;9.170;2023-04-30T01:08:31;6.90;;;4.10;;
63444;SDS011;49573;47.682;9.170;2023-04-30T01:11:20;8.20;;;4.38;;
63444;SDS011;49573;47.682;9.170;2023-04-30T01:14:16;6.90;;;4.17;;
63444;SDS011;49573;47.682;9.170;2023-04-30T01:17:07;7.85;;;4.30;;
63444;SDS011;49573;47.682;9.170;2023-04-30T01:19:59;8.68;;;4.35;;
63444;SDS011;49573;47.682;9.170;2023-04-30T01:22:49;7.25;;;3.92;;
63444;SDS011;49573;47.682;9.170;2023-04-30T01:25:43;7.43;;;4.70;;
63444;SDS011;49573;47.682;9.170;2023-04-30T01:28:39;8.05;;;4.80;;
63444;SDS011;49573;47.682;9.170;2023-04-30T01:31:28;5.68;;;4.30;;
63444;SDS011;49573;47.682;9.170;2023-04-30T01:34:15;8.82;;;4.40;;
63444;SDS011;49573;47.682;9.170;2023-04-30T01:37:04;6.18;;;4.18;;
63444;SDS011;49573;47.682;9.170;2023-04-30T01:40:03;8.05;;;4.82;;
63444;SDS011;49573;47.682;9.170;2023-04-30T01:43:04;7.63;;;4.68;;
63444;SDS011;49573;47.682;9.170;2023-04-30T01:46:00;8.07;;;4.60;;
63444;SDS011;49573;47.682;9.170;2023-04-30T01:48:53;9.65;;;4.40;;
63444;SDS011;49573;47.682;9.170;2023-04-30T01:51:47;6.85;;;4.78;;
63444;SDS011;49573;47.682;9.170;2023-04-30T01:54:43;10.65;;;4.78;;
63444;SDS011;49573;47.682;9.170;2023-04-30T01:57:36;7.60;;;4.50;;
63444;SDS011;49573;47.682;9.170;2023-04-30T02:00:23;8.48;;;5.20;;
63444;SDS011;49573;47.682;9.170;2023-04-30T02:03:11;8.23;;;4.90;;
63444;SDS011;49573;47.682;9.170;2023-04-30T02:05:57;9.18;;;5.07;;
63444;SDS011;49573;47.682;9.170;2023-04-30T02:08:43;8.10;;;5.30;;
63444;SDS011;49573;47.682;9.170;2023-04-30T02:11:29;8.13;;;4.88;;
63444;SDS011;49573;47.682;9.170;2023-04-30T02:14:15;8.27;;;4.63;;
63444;SDS011;49573;47.682;9.170;2023-04-30T02:17:01;8.23;;;5.00;;
63444;SDS011;49573;47.682;9.170;2023-04-30T02:19:49;9.43;;;5.15;;
63444;SDS011;49573;47.682;9.170;2023-04-30T02:22:35;9.35;;;5.00;;
63444;SDS011;49573;47.682;9.170;2023-04-30T02:25:21;8.80;;;5.23;;
63444;SDS011;49573;47.682;9.170;2023-04-30T02:28:07;11.52;;;5.32;;
63444;SDS011;49573;47.682;9.170;2023-04-30T02:30:53;8.15;;;4.80;;
63444;SDS011;49573;47.682;9.170;2023-04-30T02:33:39;8.30;;;5.57;;
63444;SDS011;49573;47.682;9.170;2023-04-30T02:36:27;9.48;;;5.35;;
63444;SDS011;49573;47.682;9.170;2023-04-30T02:39:13;9.73;;;5.40;;
63444;SDS011;49573;47.682;9.170;2023-04-30T02:41:59;8.60;;;5.22;;
63444;SDS011;49573;47.682;9.170;2023-04-30T02:44:45;8.43;;;5.18;;
63444;SDS011;49573;47.682;9.170;2023-04-30T02:47:31;9.38;;;5.38;;
63444;SDS011;49573;47.682;9.170;2023-04-30T02:50:17;9.32;;;5.25;;
63444;SDS011;49573;47.682;9.170;2023-04-30T02:53:04;9.23;;;5.63;;
63444;SDS011;49573;47.682;9.170;2023-04-30T02:55:51;7.47;;;5.13;;
63444;SDS011;49573;47.682;9.170;2023-04-30T02:58:37;7.28;;;5.03;;
63444;SDS011;49573;47.682;9.170;2023-04-30T03:01:23;7.03;;;4.68;;
63444;SDS011;49573;47.682;9.170;2023-04-30T03:04:09;6.63;;;4.50;;
63444;SDS011;49573;47.682;9.170;2023-04-30T03:06:55;7.63;;;5.10;;
63444;SDS011;49573;47.682;9.170;2023-04-30T03:09:42;9.40;;;5.53;;
63444;SDS011;49573;47.682;9.170;2023-04-30T03:12:28;6.65;;;4.63;;
63444;SDS011;49573;47.682;9.170;2023-04-30T03:15:14;8.02;;;4.65;;
63444;SDS011;49573;47.682;9.170;2023-04-30T03:18:00;7.07;;;4.87;;
63444;SDS011;49573;47.682;9.170;2023-04-30T03:20:46;9.15;;;4.80;;
63444;SDS011;49573;47.682;9.170;2023-04-30T03:23:32;8.02;;;5.00;;
63444;SDS011;49573;47.682;9.170;2023-04-30T03:26:20;8.15;;;4.93;;
63444;SDS011;49573;47.682;9.170;2023-04-30T03:29:06;8.02;;;4.88;;
63444;SDS011;49573;47.682;9.170;2023-04-30T03:31:52;10.02;;;5.10;;
63444;SDS011;49573;47.682;9.170;2023-04-30T03:34:38;8.40;;;4.95;;
63444;SDS011;49573;47.682;9.170;2023-04-30T03:37:24;9.10;;;4.78;;
63444;SDS011;49573;47.682;9.170;2023-04-30T03:40:10;7.50;;;4.75;;
63444;SDS011;49573;47.682;9.170;2023-04-30T03:45:44;6.35;;;4.10;;
63444;SDS011;49573;47.682;9.170;2023-04-30T03:48:30;8.07;;;5.20;;
63444;SDS011;49573;47.682;9.170;2023-04-30T03:51:17;7.20;;;4.70;;
63444;SDS011;49573;47.682;9.170;2023-04-30T03:54:04;6.43;;;4.50;;
63444;SDS011;49573;47.682;9.170;2023-04-30T03:56:50;6.97;;;4.80;;
63444;SDS011;49573;47.682;9.170;2023-04-30T03:59:38;6.63;;;4.60;;
63444;SDS011;49573;47.682;9.170;2023-04-30T04:02:24;6.85;;;4.63;;
63444;SDS011;49573;47.682;9.170;2023-04-30T04:05:10;7.55;;;4.55;;
63444;SDS011;49573;47.682;9.170;2023-04-30T04:07:56;8.35;;;5.07;;
63444;SDS011;49573;47.682;9.170;2023-04-30T04:10:42;8.02;;;5.10;;
63444;SDS011;49573;47.682;9.170;2023-04-30T04:13:28;8.17;;;5.13;;
63444;SDS011;49573;47.682;9.170;2023-04-30T04:16:16;7.32;;;4.82;;
63444;SDS011;49573;47.682;9.170;2023-04-30T04:19:02;9.07;;;5.07;;
63444;SDS011;49573;47.682;9.170;2023-04-30T04:21:48;7.68;;;4.82;;
63444;SDS011;49573;47.682;9.170;2023-04-30T04:24:35;6.30;;;4.45;;
63444;SDS011;49573;47.682;9.170;2023-04-30T04:27:22;7.00;;;4.72;;
63444;SDS011;49573;47.682;9.170;2023-04-30T04:30:09;8.30;;;5.10;;
63444;SDS011;49573;47.682;9.170;2023-04-30T04:35:44;9.95;;;5.63;;
63444;SDS011;49573;47.682;9.170;2023-04-30T04:38:30;8.23;;;5.53;;
63444;SDS011;49573;47.682;9.170;2023-04-30T04:41:16;10.93;;;5.68;;
63444;SDS011;49573;47.682;9.170;2023-04-30T04:44:03;8.10;;;5.40;;
63444;SDS011;49573;47.682;9.170;2023-04-30T04:46:49;8.60;;;5.45;;
63444;SDS011;49573;47.682;9.170;2023-04-30T04:49:39;8.55;;;6.13;;
63444;SDS011;49573;47.682;9.170;2023-04-30T04:52:25;9.32;;;6.35;;
63444;SDS011;49573;47.682;9.170;2023-04-30T04:55:11;8.48;;;5.93;;
63444;SDS011;49573;47.682;9.170;2023-04-30T04:57:58;7.80;;;5.40;;
63444;SDS011;49573;47.682;9.170;2023-04-30T05:00:44;7.93;;;5.80;;
63444;SDS011;49573;47.682;9.170;2023-04-30T05:03:30;8.75;;;5.80;;
63444;SDS011;49573;47.682;9.170;2023-04-30T05:06:18;7.65;;;5.50;;
63444;SDS011;49573;47.682;9.170;2023-04-30T05:09:04;8.35;;;5.60;;
63444;SDS011;49573;47.682;9.170;2023-04-30T05:11:53;8.13;;;5.85;;
63444;SDS011;49573;47.682;9.170;2023-04-30T05:14:39;9.35;;;6.22;;
63444;SDS011;49573;47.682;9.170;2023-04-30T05:17:25;7.53;;;5.88;;
63444;SDS011;49573;47.682;9.170;2023-04-30T05:20:11;7.97;;;5.82;;
63444;SDS011;49573;47.682;9.170;2023-04-30T05:22:59;8.13;;;5.93;;
63444;SDS011;49573;47.682;9.170;2023-04-30T05:25:45;10.77;;;6.18;;
63444;SDS011;49573;47.682;9.170;2023-04-30T05:28:36;9.95;;;5.97;;
63444;SDS011;49573;47.682;9.170;2023-04-30T05:31:22;8.35;;;6.13;;
63444;SDS011;49573;47.682;9.170;2023-04-30T05:34:08;8.70;;;5.70;;
63444;SDS011;49573;47.682;9.170;2023-04-30T05:36:54;7.60;;;5.60;;
63444;SDS011;49573;47.682;9.170;2023-04-30T05:39:42;8.68;;;5.60;;
63444;SDS011;49573;47.682;9.170;2023-04-30T05:42:28;7.32;;;5.22;;
63444;SDS011;49573;47.682;9.170;2023-04-30T05:48:01;8.77;;;5.88;;
63444;SDS011;49573;47.682;9.170;2023-04-30T05:50:47;8.60;;;5.60;;
63444;SDS011;49573;47.682;9.170;2023-04-30T05:53:33;8.38;;;5.75;;
63444;SDS011;49573;47.682;9.170;2023-04-30T05:56:21;8.33;;;5.63;;
63444;SDS011;49573;47.682;9.170;2023-04-30T05:59:08;7.60;;;5.70;;
63444;SDS011;49573;47.682;9.170;2023-04-30T06:01:54;9.27;;;5.80;;
63444;SDS011;49573;47.682;9.170;2023-04-30T06:04:40;8.20;;;5.75;;
63444;SDS011;49573;47.682;9.170;2023-04-30T06:07:26;8.48;;;5.80;;
63444;SDS011;49573;47.682;9.170;2023-04-30T06:10:13;8.03;;;5.47;;
63444;SDS011;49573;47.682;9.170;2023-04-30T06:13:00;9.20;;;6.45;;
63444;SDS011;49573;47.682;9.170;2023-04-30T06:15:46;9.27;;;6.53;;
63444;SDS011;49573;47.682;9.170;2023-04-30T06:18:32;8.93;;;6.00;;
63444;SDS011;49573;47.682;9.170;2023-04-30T06:21:18;6.82;;;5.43;;
63444;SDS011;49573;47.682;9.170;2023-04-30T06:24:05;7.43;;;5.78;;
63444;SDS011;49573;47.682;9.170;2023-04-30T06:26:51;8.00;;;6.20;;
63444;SDS011;49573;47.682;9.170;2023-04-30T06:29:38;9.10;;;6.40;;
63444;SDS011;49573;47.682;9.170;2023-04-30T06:32:24;10.05;;;6.32;;
63444;SDS011;49573;47.682;9.170;2023-04-30T06:35:10;8.40;;;6.30;;
63444;SDS011;49573;47.682;9.170;2023-04-30T06:37:56;9.32;;;6.05;;
63444;SDS011;49573;47.682;9.170;2023-04-30T06:40:43;8.47;;;5.67;;
63444;SDS011;49573;47.682;9.170;2023-04-30T06:43:29;9.85;;;7.30;;
63444;SDS011;49573;47.682;9.170;2023-04-30T06:46:16;8.77;;;6.53;;
63444;SDS011;49573;47.682;9.170;2023-04-30T06:49:02;9.40;;;5.80;;
63444;SDS011;49573;47.682;9.170;2023-04-30T06:51:48;10.80;;;7.10;;
63444;SDS011;49573;47.682;9.170;2023-04-30T06:54:34;8.32;;;5.82;;
63444;SDS011;49573;47.682;9.170;2023-04-30T06:57:20;8.93;;;6.50;;
63444;SDS011;49573;47.682;9.170;2023-04-30T07:00:07;8.33;;;6.40;;
63444;SDS011;49573;47.682;9.170;2023-04-30T07:02:54;9.48;;;7.00;;
63444;SDS011;49573;47.682;9.170;2023-04-30T07:05:41;8.48;;;6.30;;
63444;SDS011;49573;47.682;9.170;2023-04-30T07:08:27;9.27;;;6.43;;
63444;SDS011;49573;47.682;9.170;2023-04-30T07:11:13;7.57;;;6.10;;
63444;SDS011;49573;47.682;9.170;2023-04-30T07:13:59;8.32;;;6.53;;
63444;SDS011;49573;47.682;9.170;2023-04-30T07:16:45;7.95;;;6.05;;
63444;SDS011;49573;47.682;9.170;2023-04-30T07:19:36;8.57;;;5.88;;
63444;SDS011;49573;47.682;9.170;2023-04-30T07:22:22;10.75;;;6.45;;
63444;SDS011;49573;47.682;9.170;2023-04-30T07:25:08;8.60;;;6.23;;
63444;SDS011;49573;47.682;9.170;2023-04-30T07:27:54;8.57;;;5.90;;
63444;SDS011;49573;47.682;9.170;2023-04-30T07:30:40;8.40;;;6.50;;
63444;SDS011;49573;47.682;9.170;2023-04-30T07:33:27;6.90;;;5.63;;
63444;SDS011;49573;47.682;9.170;2023-04-30T07:36:14;8.77;;;6.03;;
63444;SDS011;49573;47.682;9.170;2023-04-30T07:39:01;7.28;;;5.53;;
63444;SDS011;49573;47.682;9.170;2023-04-30T07:41:47;7.80;;;5.87;;
63444;SDS011;49573;47.682;9.170;2023-04-30T07:44:33;7.82;;;5.78;;
63444;SDS011;49573;47.682;9.170;2023-04-30T07:47:19;8.47;;;5.83;;
63444;SDS011;49573;47.682;9.170;2023-04-30T07:50:05;7.93;;;5.88;;
63444;SDS011;49573;47.682;9.170;2023-04-30T07:52:53;7.70;;;5.80;;
63444;SDS011;49573;47.682;9.170;2023-04-30T07:55:39;7.05;;;5.60;;
63444;SDS011;49573;47.682;9.170;2023-04-30T07:58:25;7.97;;;5.40;;
63444;SDS011;49573;47.682;9.170;2023-04-30T08:01:11;7.73;;;5.60;;
63444;SDS011;49573;47.682;9.170;2023-04-30T08:03:57;6.30;;;5.07;;
63444;SDS011;49573;47.682;9.170;2023-04-30T08:06:43;6.50;;;4.82;;
63444;SDS011;49573;47.682;9.170;2023-04-30T08:09:31;6.65;;;4.95;;
63444;SDS011;49573;47.682;9.170;2023-04-30T08:12:17;6.28;;;4.95;;
63444;SDS011;49573;47.682;9.170;2023-04-30T08:15:04;8.60;;;4.87;;
63444;SDS011;49573;47.682;9.170;2023-04-30T08:17:51;5.75;;;4.43;;
63444;SDS011;49573;47.682;9.170;2023-04-30T08:20:38;5.50;;;4.32;;
63444;SDS011;49573;47.682;9.170;2023-04-30T08:23:24;6.45;;;5.38;;
63444;SDS011;49573;47.682;9.170;2023-04-30T08:26:11;6.33;;;4.43;;
63444;SDS011;49573;47.682;9.170;2023-04-30T08:28:57;5.88;;;4.30;;
63444;SDS011;49573;47.682;9.170;2023-04-30T08:31:43;5.70;;;4.10;;
63444;SDS011;49573;47.682;9.170;2023-04-30T08:34:30;8.13;;;4.40;;
63444;SDS011;49573;47.682;9.170;2023-04-30T08:37:16;5.30;;;4.00;;
63444;SDS011;49573;47.682;9.170;2023-04-30T08:40:03;5.27;;;3.77;;
63444;SDS011;49573;47.682;9.170;2023-04-30T08:42:57;5.57;;;3.92;;
63444;SDS011;49573;47.682;9.170;2023-04-30T08:45:49;6.72;;;3.78;;
63444;SDS011;49573;47.682;9.170;2023-04-30T08:51:22;4.10;;;3.15;;
63444;SDS011;49573;47.682;9.170;2023-04-30T08:54:09;4.63;;;3.50;;
63444;SDS011;49573;47.682;9.170;2023-04-30T08:56:58;5.40;;;3.20;;
63444;SDS011;49573;47.682;9.170;2023-04-30T08:59:45;6.40;;;3.92;;
63444;SDS011;49573;47.682;9.170;2023-04-30T09:02:31;5.03;;;3.58;;
63444;SDS011;49573;47.682;9.170;2023-04-30T09:05:18;5.38;;;3.67;;
63444;SDS011;49573;47.682;9.170;2023-04-30T09:08:04;4.67;;;3.50;;
63444;SDS011;49573;47.682;9.170;2023-04-30T09:10:52;5.10;;;3.42;;
63444;SDS011;49573;47.682;9.170;2023-04-30T09:13:39;4.55;;;3.30;;
63444;SDS011;49573;47.682;9.170;2023-04-30T09:16:27;4.22;;;3.20;;
63444;SDS011;49573;47.682;9.170;2023-04-30T09:19:21;6.20;;;3.58;;
63444;SDS011;49573;47.682;9.170;2023-04-30T09:22:18;4.75;;;3.20;;
63444;SDS011;49573;47.682;9.170;2023-04-30T09:25:05;4.18;;;3.10;;
63444;SDS011;49573;47.682;9.170;2023-04-30T09:28:05;4.03;;;3.20;;
63444;SDS011;49573;47.682;9.170;2023-04-30T09:30:53;4.07;;;3.08;;
63444;SDS011;49573;47.682;9.170;2023-04-30T09:33:45;4.00;;;2.95;;
63444;SDS011;49573;47.682;9.170;2023-04-30T09:36:32;4.15;;;3.20;;
63444;SDS011;49573;47.682;9.170;2023-04-30T09:39:18;5.60;;;3.10;;
63444;SDS011;49573;47.682;9.170;2023-04-30T09:42:08;4.82;;;3.30;;
63444;SDS011;49573;47.682;9.170;2023-04-30T09:44:54;5.75;;;3.20;;
63444;SDS011;49573;47.682;9.170;2023-04-30T09:47:42;3.47;;;2.90;;
63444;SDS011;49573;47.682;9.170;2023-04-30T09:50:35;3.67;;;2.95;;
63444;SDS011;49573;47.682;9.170;2023-04-30T09:53:23;4.43;;;3.10;;
63444;SDS011;49573;47.682;9.170;2023-04-30T09:56:10;3.88;;;3.00;;
63444;SDS011;49573;47.682;9.170;2023-04-30T09:58:58;4.85;;;3.13;;
63444;SDS011;49573;47.682;9.170;2023-04-30T10:01:46;4.03;;;3.10;;
63444;SDS011;49573;47.682;9.170;2023-04-30T10:04:34;3.80;;;3.00;;
63444;SDS011;49573;47.682;9.170;2023-04-30T10:07:23;5.18;;;3.08;;
63444;SDS011;49573;47.682;9.170;2023-04-30T10:10:11;4.20;;;3.28;;
63444;SDS011;49573;47.682;9.170;2023-04-30T10:12:59;3.88;;;2.90;;
63444;SDS011;49573;47.682;9.170;2023-04-30T10:15:49;4.55;;;3.22;;
63444;SDS011;49573;47.682;9.170;2023-04-30T10:18:38;4.03;;;2.80;;
63444;SDS011;49573;47.682;9.170;2023-04-30T10:21:27;4.10;;;3.00;;
63444;SDS011;49573;47.682;9.170;2023-04-30T10:24:18;4.40;;;3.22;;
63444;SDS011;49573;47.682;9.170;2023-04-30T10:27:05;4.28;;;3.10;;
63444;SDS011;49573;47.682;9.170;2023-04-30T10:29:51;5.40;;;3.30;;
63444;SDS011;49573;47.682;9.170;2023-04-30T10:32:40;4.03;;;2.85;;
63444;SDS011;49573;47.682;9.170;2023-04-30T10:35:34;4.30;;;3.08;;
63444;SDS011;49573;47.682;9.170;2023-04-30T10:38:29;3.42;;;2.80;;
63444;SDS011;49573;47.682;9.170;2023-04-30T10:41:18;6.80;;;2.88;;
63444;SDS011;49573;47.682;9.170;2023-04-30T10:44:06;3.90;;;2.70;;
63444;SDS011;49573;47.682;9.170;2023-04-30T10:46:57;3.80;;;2.60;;
63444;SDS011;49573;47.682;9.170;2023-04-30T10:49:45;3.28;;;2.55;;
63444;SDS011;49573;47.682;9.170;2023-04-30T10:52:32;4.00;;;2.58;;
63444;SDS011;49573;47.682;9.170;2023-04-30T10:55:19;3.85;;;2.95;;
63444;SDS011;49573;47.682;9.170;2023-04-30T10:58:17;3.63;;;2.72;;
63444;SDS011;49573;47.682;9.170;2023-04-30T11:01:10;3.33;;;2.58;;
63444;SDS011;49573;47.682;9.170;2023-04-30T11:04:04;3.40;;;2.67;;
63444;SDS011;49573;47.682;9.170;2023-04-30T11:09:56;3.40;;;2.85;;
63444;SDS011;49573;47.682;9.170;2023-04-30T11:12:46;3.47;;;2.50;;
63444;SDS011;49573;47.682;9.170;2023-04-30T11:15:39;4.65;;;3.05;;
63444;SDS011;49573;47.682;9.170;2023-04-30T11:18:39;4.25;;;3.20;;
63444;SDS011;49573;47.682;9.170;2023-04-30T11:21:28;3.85;;;2.72;;
63444;SDS011;49573;47.682;9.170;2023-04-30T11:24:16;3.33;;;2.65;;
63444;SDS011;49573;47.682;9.170;2023-04-30T11:27:04;3.20;;;2.58;;
63444;SDS011;49573;47.682;9.170;2023-04-30T11:29:51;3.20;;;2.40;;
63444;SDS011;49573;47.682;9.170;2023-04-30T11:32:40;3.58;;;2.50;;
63444;SDS011;49573;47.682;9.170;2023-04-30T11:35:29;4.32;;;2.40;;
63444;SDS011;49573;47.682;9.170;2023-04-30T11:38:18;5.53;;;2.97;;
63444;SDS011;49573;47.682;9.170;2023-04-30T11:41:07;4.57;;;2.50;;
63444;SDS011;49573;47.682;9.170;2023-04-30T11:43:57;3.55;;;2.70;;
63444;SDS011;49573;47.682;9.170;2023-04-30T11:46:43;3.50;;;2.63;;
63444;SDS011;49573;47.682;9.170;2023-04-30T11:49:30;3.42;;;2.53;;
63444;SDS011;49573;47.682;9.170;2023-04-30T11:52:19;5.05;;;2.72;;
63444;SDS011;49573;47.682;9.170;2023-04-30T11:55:07;4.80;;;2.53;;
63444;SDS011;49573;47.682;9.170;2023-04-30T11:57:58;4.85;;;2.58;;
63444;SDS011;49573;47.682;9.170;2023-04-30T12:00:47;4.72;;;2.85;;
63444;SDS011;49573;47.682;9.170;2023-04-30T12:03:42;4.68;;;2.47;;
63444;SDS011;49573;47.682;9.170;2023-04-30T12:06:32;4.63;;;2.35;;
63444;SDS011;49573;47.682;9.170;2023-04-30T12:09:18;2.92;;;2.40;;
63444;SDS011;49573;47.682;9.170;2023-04-30T12:12:04;4.22;;;2.60;;
63444;SDS011;49573;47.682;9.170;2023-04-30T12:14:50;3.97;;;2.40;;
63444;SDS011;49573;47.682;9.170;2023-04-30T12:17:37;4.50;;;2.35;;
63444;SDS011;49573;47.682;9.170;2023-04-30T12:20:25;3.10;;;2.45;;
63444;SDS011;49573;47.682;9.170;2023-04-30T12:23:13;3.83;;;2.67;;
63444;SDS011;49573;47.682;9.170;2023-04-30T12:26:00;4.43;;;2.50;;
63444;SDS011;49573;47.682;9.170;2023-04-30T12:28:46;4.43;;;2.60;;
63444;SDS011;49573;47.682;9.170;2023-04-30T12:31:35;3.05;;;2.47;;
63444;SDS011;49573;47.682;9.170;2023-04-30T12:34:22;3.92;;;2.67;;
63444;SDS011;49573;47.682;9.170;2023-04-30T12:37:13;3.67;;;2.63;;
63444;SDS011;49573;47.682;9.170;2023-04-30T12:40:01;3.60;;;2.53;;
63444;SDS011;49573;47.682;9.170;2023-04-30T12:42:47;3.00;;;2.45;;
63444;SDS011;49573;47.682;9.170;2023-04-30T12:45:43;4.32;;;2.50;;
63444;SDS011;49573;47.682;9.170;2023-04-30T12:48:41;2.85;;;2.30;;
63444;SDS011;49573;47.682;9.170;2023-04-30T12:51:28;2.80;;;2.38;;
63444;SDS011;49573;47.682;9.170;2023-04-30T12:54:14;3.70;;;2.67;;
63444;SDS011;49573;47.682;9.170;2023-04-30T12:57:10;3.00;;;2.20;;
63444;SDS011;49573;47.682;9.170;2023-04-30T12:59:58;3.38;;;2.53;;
63444;SDS011;49573;47.682;9.170;2023-04-30T13:02:44;2.72;;;2.25;;
63444;SDS011;49573;47.682;9.170;2023-04-30T13:05:30;3.42;;;2.28;;
63444;SDS011;49573;47.682;9.170;2023-04-30T13:08:17;2.50;;;2.08;;
63444;SDS011;49573;47.682;9.170;2023-04-30T13:11:03;3.10;;;2.33;;
63444;SDS011;49573;47.682;9.170;2023-04-30T13:13:51;3.85;;;3.08;;
63444;SDS011;49573;47.682;9.170;2023-04-30T13:16:39;3.83;;;2.50;;
63444;SDS011;49573;47.682;9.170;2023-04-30T13:19:25;3.78;;;2.60;;
63444;SDS011;49573;47.682;9.170;2023-04-30T13:22:11;2.92;;;2.60;;
63444;SDS011;49573;47.682;9.170;2023-04-30T13:24:57;2.95;;;2.33;;
63444;SDS011;49573;47.682;9.170;2023-04-30T13:27:44;3.40;;;2.40;;
63444;SDS011;49573;47.682;9.170;2023-04-30T13:30:31;3.00;;;2.47;;
63444;SDS011;49573;47.682;9.170;2023-04-30T13:33:18;5.03;;;2.67;;
63444;SDS011;49573;47.682;9.170;2023-04-30T13:36:05;3.10;;;2.40;;
63444;SDS011;49573;47.682;9.170;2023-04-30T13:38:51;3.42;;;2.40;;
63444;SDS011;49573;47.682;9.170;2023-04-30T13:41:38;5.72;;;2.65;;
63444;SDS011;49573;47.682;9.170;2023-04-30T13:44:24;2.63;;;2.10;;
63444;SDS011;49573;47.682;9.170;2023-04-30T13:47:11;2.72;;;2.30;;
63444;SDS011;49573;47.682;9.170;2023-04-30T13:49:57;3.40;;;2.53;;
63444;SDS011;49573;47.682;9.170;2023-04-30T13:52:43;3.35;;;2.50;;
63444;SDS011;49573;47.682;9.170;2023-04-30T13:55:29;4.00;;;2.60;;
63444;SDS011;49573;47.682;9.170;2023-04-30T13:58:15;2.90;;;2.33;;
63444;SDS011;49573;47.682;9.170;2023-04-30T14:01:01;3.40;;;2.55;;
63444;SDS011;49573;47.682;9.170;2023-04-30T14:03:49;3.20;;;2.50;;
63444;SDS011;49573;47.682;9.170;2023-04-30T14:06:35;4.45;;;2.85;;
63444;SDS011;49573;47.682;9.170;2023-04-30T14:09:22;3.13;;;2.30;;
63444;SDS011;49573;47.682;9.170;2023-04-30T14:12:08;4.82;;;2.60;;
63444;SDS011;49573;47.682;9.170;2023-04-30T14:14:55;3.33;;;2.45;;
63444;SDS011;49573;47.682;9.170;2023-04-30T14:17:41;3.63;;;2.30;;
63444;SDS011;49573;47.682;9.170;2023-04-30T14:20:29;3.15;;;2.22;;
63444;SDS011;49573;47.682;9.170;2023-04-30T14:23:15;3.50;;;2.50;;
63444;SDS011;49573;47.682;9.170;2023-04-30T14:26:01;4.78;;;2.60;;
63444;SDS011;49573;47.682;9.170;2023-04-30T14:28:47;3.35;;;2.38;;
63444;SDS011;49573;47.682;9.170;2023-04-30T14:31:33;2.75;;;2.33;;
63444;SDS011;49573;47.682;9.170;2023-04-30T14:34:19;3.15;;;2.42;;
63444;SDS011;49573;47.682;9.170;2023-04-30T14:37:06;3.60;;;2.40;;
63444;SDS011;49573;47.682;9.170;2023-04-30T14:39:52;3.20;;;2.35;;
63444;SDS011;49573;47.682;9.170;2023-04-30T14:42:38;3.28;;;2.60;;
63444;SDS011;49573;47.682;9.170;2023-04-30T14:45:24;3.25;;;2.50;;
63444;SDS011;49573;47.682;9.170;2023-04-30T14:48:12;2.47;;;2.10;;
63444;SDS011;49573;47.682;9.170;2023-04-30T14:50:58;2.80;;;2.40;;
63444;SDS011;49573;47.682;9.170;2023-04-30T14:53:46;3.05;;;2.60;;
63444;SDS011;49573;47.682;9.170;2023-04-30T14:56:33;3.35;;;2.53;;
63444;SDS011;49573;47.682;9.170;2023-04-30T14:59:19;4.47;;;2.40;;
63444;SDS011;49573;47.682;9.170;2023-04-30T15:02:05;2.92;;;2.38;;
63444;SDS011;49573;47.682;9.170;2023-04-30T15:04:51;3.08;;;2.20;;
63444;SDS011;49573;47.682;9.170;2023-04-30T15:07:37;3.30;;;2.50;;
63444;SDS011;49573;47.682;9.170;2023-04-30T15:10:25;3.85;;;2.50;;
63444;SDS011;49573;47.682;9.170;2023-04-30T15:13:11;3.22;;;2.58;;
63444;SDS011;49573;47.682;9.170;2023-04-30T15:15:58;4.07;;;2.55;;
63444;SDS011;49573;47.682;9.170;2023-04-30T15:18:44;3.00;;;2.40;;
63444;SDS011;49573;47.682;9.170;2023-04-30T15:21:31;3.20;;;2.58;;
63444;SDS011;49573;47.682;9.170;2023-04-30T15:24:17;2.50;;;2.10;;
63444;SDS011;49573;47.682;9.170;2023-04-30T15:27:05;3.55;;;2.63;;
63444;SDS011;49573;47.682;9.170;2023-04-30T15:29:51;3.42;;;2.50;;
63444;SDS011;49573;47.682;9.170;2023-04-30T15:32:37;3.28;;;2.50;;
63444;SDS011;49573;47.682;9.170;2023-04-30T15:35:23;3.20;;;2.40;;
63444;SDS011;49573;47.682;9.170;2023-04-30T15:38:12;3.45;;;2.55;;
63444;SDS011;49573;47.682;9.170;2023-04-30T15:40:58;3.38;;;2.50;;
63444;SDS011;49573;47.682;9.170;2023-04-30T15:43:45;4.67;;;2.40;;
63444;SDS011;49573;47.682;9.170;2023-04-30T15:46:31;3.50;;;2.53;;
63444;SDS011;49573;47.682;9.170;2023-04-30T15:49:18;3.67;;;2.70;;
63444;SDS011;49573;47.682;9.170;2023-04-30T15:52:04;2.95;;;2.30;;
63444;SDS011;49573;47.682;9.170;2023-04-30T15:54:50;4.43;;;2.40;;
63444;SDS011;49573;47.682;9.170;2023-04-30T15:57:36;3.23;;;2.50;;
63444;SDS011;49573;47.682;9.170;2023-04-30T16:00:23;3.33;;;2.63;;
63444;SDS011;49573;47.682;9.170;2023-04-30T16:03:11;3.63;;;2.53;;
63444;SDS011;49573;47.682;9.170;2023-04-30T16:05:57;3.25;;;2.20;;
63444;SDS011;49573;47.682;9.170;2023-04-30T16:08:45;3.40;;;2.70;;
63444;SDS011;49573;47.682;9.170;2023-04-30T16:11:31;4.07;;;2.55;;
63444;SDS011;49573;47.682;9.170;2023-04-30T16:14:18;4.07;;;2.30;;
63444;SDS011;49573;47.682;9.170;2023-04-30T16:17:05;3.43;;;2.43;;
63444;SDS011;49573;47.682;9.170;2023-04-30T16:19:52;4.10;;;2.60;;
63444;SDS011;49573;47.682;9.170;2023-04-30T16:22:38;4.43;;;2.23;;
63444;SDS011;49573;47.682;9.170;2023-04-30T16:25:24;3.30;;;2.40;;
63444;SDS011;49573;47.682;9.170;2023-04-30T16:28:10;4.50;;;2.67;;
63444;SDS011;49573;47.682;9.170;2023-04-30T16:30:57;3.53;;;2.47;;
63444;SDS011;49573;47.682;9.170;2023-04-30T16:33:44;3.60;;;2.65;;
63444;SDS011;49573;47.682;9.170;2023-04-30T16:36:31;2.95;;;2.42;;
63444;SDS011;49573;47.682;9.170;2023-04-30T16:39:17;3.60;;;2.50;;
63444;SDS011;49573;47.682;9.170;2023-04-30T16:42:03;4.82;;;2.60;;
63444;SDS011;49573;47.682;9.170;2023-04-30T16:44:50;5.28;;;2.58;;
63444;SDS011;49573;47.682;9.170;2023-04-30T16:47:36;3.73;;;2.47;;
63444;SDS011;49573;47.682;9.170;2023-04-30T16:50:23;3.17;;;2.40;;
63444;SDS011;49573;47.682;9.170;2023-04-30T16:53:11;3.38;;;2.58;;
63444;SDS011;49573;47.682;9.170;2023-04-30T16:55:57;4.37;;;2.33;;
63444;SDS011;49573;47.682;9.170;2023-04-30T16:58:43;3.93;;;2.70;;
63444;SDS011;49573;47.682;9.170;2023-04-30T17:01:29;3.50;;;2.63;;
63444;SDS011;49573;47.682;9.170;2023-04-30T17:04:16;4.68;;;2.90;;
63444;SDS011;49573;47.682;9.170;2023-04-30T17:07:04;3.85;;;2.60;;